
Distance (Route):
Temperature : 3.3°C
Humidity : 85.6%
Pressure : 0hPa| Receiver | Frames | First received | Last received |
|---|---|---|---|
| LZ4TU-5 | 146 | 2026-09-03 23:25:32 | 2026-09-04 01:11:36 |
| Receiver | Date | Latitude | Longitude | Direction | Speed | Altitude | Climb | Temperature | Humidity | Pressure | Voltage | Killtimer | Uptime | BKT | XDATA |
|---|---|---|---|---|---|---|---|---|---|---|---|---|---|---|---|
| LZ4TU-5 | 2026-09-04 01:11:36 | 42.93779 | 22.40599 | 172° | 40km/h | 3039m | -14.1m/s | 3.3°C | 85.6% | 0hPa | 0V | 00:00:00 | 00:00:00 | 00:00:00 | |
| LZ4TU-5 | 2026-09-04 01:11:25 | 42.93890 | 22.40564 | 165° | 42km/h | 3184m | -13.9m/s | 2.0°C | 86.2% | 0hPa | 0V | 00:00:00 | 00:00:00 | 00:00:00 | |
| LZ4TU-5 | 2026-09-04 01:11:20 | 42.93942 | 22.40547 | 166° | 40km/h | 3255m | -13.4m/s | 1.5°C | 84.6% | 0hPa | 0V | 00:00:00 | 00:00:00 | 00:00:00 | |
| LZ4TU-5 | 2026-09-04 01:11:16 | 42.93980 | 22.40530 | 163° | 42km/h | 3310m | -13.8m/s | 1.6°C | 80.4% | 0hPa | 0V | 00:00:00 | 00:00:00 | 00:00:00 | |
| LZ4TU-5 | 2026-09-04 01:11:12 | 42.94017 | 22.40512 | 156° | 38km/h | 3368m | -13.8m/s | 1.4°C | 80.9% | 0hPa | 0V | 00:00:00 | 00:00:00 | 00:00:00 | |
| LZ4TU-5 | 2026-09-04 01:11:07 | 42.94061 | 22.40484 | 155° | 38km/h | 3440m | -13.9m/s | 0.8°C | 82.7% | 0hPa | 0V | 00:00:00 | 00:00:00 | 00:00:00 | |
| LZ4TU-5 | 2026-09-04 01:10:56 | 42.94146 | 22.40417 | 151° | 35km/h | 3603m | -14.2m/s | -0.3°C | 81.2% | 0hPa | 0V | 00:00:00 | 00:00:00 | 00:00:00 | |
| LZ4TU-5 | 2026-09-04 01:10:51 | 42.94185 | 22.40386 | 152° | 37km/h | 3676m | -14.6m/s | -0.5°C | 77.0% | 0hPa | 0V | 00:00:00 | 00:00:00 | 00:00:00 | |
| LZ4TU-5 | 2026-09-04 01:10:47 | 42.94225 | 22.40351 | 143° | 40km/h | 3743m | -14.0m/s | -0.7°C | 73.9% | 0hPa | 0V | 00:00:00 | 00:00:00 | 00:00:00 | |
| LZ4TU-5 | 2026-09-04 01:10:41 | 42.94266 | 22.40305 | 142° | 40km/h | 3797m | -14.6m/s | -1.3°C | 73.8% | 0hPa | 0V | 00:00:00 | 00:00:00 | 00:00:00 | |
| LZ4TU-5 | 2026-09-04 01:10:36 | 42.94303 | 22.40260 | 132° | 42km/h | 3873m | -14.5m/s | -1.6°C | 71.3% | 0hPa | 0V | 00:00:00 | 00:00:00 | 00:00:00 | |
| LZ4TU-5 | 2026-09-04 01:10:32 | 42.94330 | 22.40216 | 131° | 42km/h | 3933m | -14.1m/s | -1.7°C | 62.3% | 0hPa | 0V | 00:00:00 | 00:00:00 | 00:00:00 | |
| LZ4TU-5 | 2026-09-04 01:10:28 | 42.94355 | 22.40171 | 130° | 42km/h | 3991m | -14.4m/s | -1.9°C | 58.8% | 0hPa | 0V | 00:00:00 | 00:00:00 | 00:00:00 | |
| LZ4TU-5 | 2026-09-04 01:10:23 | 42.94388 | 22.40119 | 135° | 38km/h | 4065m | -14.4m/s | -2.2°C | 62.1% | 0hPa | 0V | 00:00:00 | 00:00:00 | 00:00:00 | |
| LZ4TU-5 | 2026-09-04 01:10:18 | 42.94422 | 22.40073 | 140° | 38km/h | 4139m | -14.4m/s | -2.6°C | 63.8% | 0hPa | 0V | 00:00:00 | 00:00:00 | 00:00:00 | |
| LZ4TU-5 | 2026-09-04 01:10:14 | 42.94450 | 22.40039 | 140° | 38km/h | 4197m | -14.4m/s | -2.9°C | 63.6% | 0hPa | 0V | 00:00:00 | 00:00:00 | 00:00:00 | |
| LZ4TU-5 | 2026-09-04 01:10:09 | 42.94484 | 22.40000 | 149° | 33km/h | 4268m | -14.6m/s | -3.2°C | 61.2% | 0hPa | 0V | 00:00:00 | 00:00:00 | 00:00:00 | |
| LZ4TU-5 | 2026-09-04 01:10:04 | 42.94516 | 22.39968 | 143° | 31km/h | 4332m | -14.2m/s | -3.1°C | 53.6% | 0hPa | 0V | 00:00:00 | 00:00:00 | 00:00:00 | |
| LZ4TU-5 | 2026-09-04 01:10:00 | 42.94542 | 22.39937 | 142° | 31km/h | 4377m | -14.4m/s | -3.3°C | 52.0% | 0hPa | 0V | 00:00:00 | 00:00:00 | 00:00:00 | |
| LZ4TU-5 | 2026-09-04 01:09:55 | 42.94569 | 22.39907 | 136° | 26km/h | 4451m | -14.3m/s | -3.6°C | 53.1% | 0hPa | 0V | 00:00:00 | 00:00:00 | 00:00:00 | |
| LZ4TU-5 | 2026-09-04 01:09:50 | 42.94595 | 22.39873 | 142° | 33km/h | 4524m | -14.2m/s | -4.3°C | 51.8% | 0hPa | 0V | 00:00:00 | 00:00:00 | 00:00:00 | |
| LZ4TU-5 | 2026-09-04 01:09:45 | 42.94629 | 22.39841 | 152° | 29km/h | 4596m | -14.2m/s | -4.4°C | 36.6% | 0hPa | 0V | 00:00:00 | 00:00:00 | 00:00:00 | |
| LZ4TU-5 | 2026-09-04 01:09:41 | 42.94655 | 22.39820 | 151° | 31km/h | 4656m | -14.5m/s | -4.8°C | 30.9% | 0hPa | 0V | 00:00:00 | 00:00:00 | 00:00:00 | |
| LZ4TU-5 | 2026-09-04 01:09:36 | 42.94688 | 22.39800 | 166° | 27km/h | 4731m | -14.7m/s | -5.3°C | 27.4% | 0hPa | 0V | 00:00:00 | 00:00:00 | 00:00:00 | |
| LZ4TU-5 | 2026-09-04 01:08:23 | 42.95330 | 22.39457 | 152° | 49km/h | 5838m | -18.8m/s | -13.9°C | 11.4% | 0hPa | 0V | 00:00:00 | 00:00:00 | 00:00:00 | |
| LZ4TU-5 | 2026-09-04 01:08:19 | 42.95375 | 22.39422 | 152° | 51km/h | 5908m | -18.9m/s | -14.2°C | 9.9% | 0hPa | 0V | 00:00:00 | 00:00:00 | 00:00:00 | |
| LZ4TU-5 | 2026-09-04 01:07:04 | 42.96076 | 22.38517 | 130° | 57km/h | 7182m | -18.4m/s | -22.7°C | 74.8% | 0hPa | 0V | 00:00:00 | 00:00:00 | 00:00:00 | |
| LZ4TU-5 | 2026-09-04 01:06:59 | 42.96124 | 22.38444 | 135° | 55km/h | 7269m | -18.2m/s | -23.2°C | 74.3% | 0hPa | 0V | 00:00:00 | 00:00:00 | 00:00:00 | |
| LZ4TU-5 | 2026-09-04 01:05:16 | 42.97332 | 22.36712 | 142° | 71km/h | 9123m | -20.4m/s | -39.5°C | 77.5% | 0hPa | 0V | 00:00:00 | 00:00:00 | 00:00:00 | |
| LZ4TU-5 | 2026-09-04 01:05:12 | 42.97387 | 22.36652 | 142° | 69km/h | 9203m | -19.9m/s | -40.1°C | 76.7% | 0hPa | 0V | 00:00:00 | 00:00:00 | 00:00:00 | |
| LZ4TU-5 | 2026-09-04 01:05:08 | 42.97440 | 22.36593 | 143° | 66km/h | 9283m | -20.1m/s | -40.9°C | 77.2% | 0hPa | 0V | 00:00:00 | 00:00:00 | 00:00:00 | |
| LZ4TU-5 | 2026-09-04 01:05:01 | 42.97532 | 22.36493 | 140° | 66km/h | 9425m | -20.1m/s | -42.5°C | 77.7% | 0hPa | 0V | 00:00:00 | 00:00:00 | 00:00:00 | |
| LZ4TU-5 | 2026-09-04 01:04:56 | 42.97594 | 22.36421 | 143° | 64km/h | 9525m | -20.3m/s | -43.3°C | 74.8% | 0hPa | 0V | 00:00:00 | 00:00:00 | 00:00:00 | |
| LZ4TU-5 | 2026-09-04 01:04:48 | 42.97695 | 22.36311 | 142° | 66km/h | 9686m | -19.9m/s | -44.7°C | 68.7% | 0hPa | 0V | 00:00:00 | 00:00:00 | 00:00:00 | |
| LZ4TU-5 | 2026-09-04 01:04:43 | 42.97758 | 22.36240 | 141° | 66km/h | 9787m | -20.1m/s | -45.7°C | 64.8% | 0hPa | 0V | 00:00:00 | 00:00:00 | 00:00:00 | |
| LZ4TU-5 | 2026-09-04 01:04:38 | 42.97823 | 22.36169 | 143° | 64km/h | 9889m | -20.2m/s | -46.7°C | 58.6% | 0hPa | 0V | 00:00:00 | 00:00:00 | 00:00:00 | |
| LZ4TU-5 | 2026-09-04 01:04:32 | 42.97899 | 22.36090 | 144° | 66km/h | 10011m | -20.5m/s | -47.6°C | 50.1% | 0hPa | 0V | 00:00:00 | 00:00:00 | 00:00:00 | |
| LZ4TU-5 | 2026-09-04 01:02:52 | 42.99543 | 22.34559 | 142° | 82km/h | 12208m | -25.2m/s | -49.6°C | 1.3% | 0hPa | 0V | 00:00:00 | 00:00:00 | 00:00:00 | |
| LZ4TU-5 | 2026-09-04 01:02:47 | 42.99625 | 22.34480 | 152° | 73km/h | 12333m | -24.8m/s | -48.4°C | 0.9% | 0hPa | 0V | 00:00:00 | 00:00:00 | 00:00:00 | |
| LZ4TU-5 | 2026-09-04 01:01:20 | 43.00294 | 22.33051 | 117° | 58km/h | 14600m | -27.6m/s | -55.5°C | 0.0% | 0hPa | 0V | 00:00:00 | 00:00:00 | 00:00:00 | |
| LZ4TU-5 | 2026-09-04 01:01:15 | 43.00317 | 22.32962 | 106° | 57km/h | 14741m | -28.2m/s | -55.7°C | 0.0% | 0hPa | 0V | 00:00:00 | 00:00:00 | 00:00:00 | |
| LZ4TU-5 | 2026-09-04 00:59:42 | 43.00735 | 22.31706 | 75° | 26km/h | 17723m | -36.1m/s | -55.6°C | 0.0% | 0hPa | 0V | 00:00:00 | 00:00:00 | 00:00:00 | |
| LZ4TU-5 | 2026-09-04 00:59:38 | 43.00728 | 22.31675 | 81° | 22km/h | 17867m | -35.6m/s | -56.7°C | 0.0% | 0hPa | 0V | 00:00:00 | 00:00:00 | 00:00:00 | |
| LZ4TU-5 | 2026-09-04 00:59:33 | 43.00727 | 22.31638 | 96° | 27km/h | 18048m | -36.2m/s | -57.2°C | 0.0% | 0hPa | 0V | 00:00:00 | 00:00:00 | 00:00:00 | |
| LZ4TU-5 | 2026-09-04 00:59:26 | 43.00745 | 22.31562 | 118° | 37km/h | 18305m | -37.4m/s | -57.7°C | 0.0% | 0hPa | 0V | 00:00:00 | 00:00:00 | 00:00:00 | |
| LZ4TU-5 | 2026-09-04 00:59:19 | 43.00779 | 22.31493 | 131° | 27km/h | 18571m | -38.3m/s | -55.4°C | 0.0% | 0hPa | 0V | 00:00:00 | 00:00:00 | 00:00:00 | |
| LZ4TU-5 | 2026-09-04 00:58:00 | 43.00854 | 22.31202 | 221° | 15km/h | 22012m | -49.9m/s | -53.5°C | 0% | 0hPa | 0V | 00:00:00 | 00:00:00 | 00:00:00 | |
| LZ4TU-5 | 2026-09-04 00:57:56 | 43.00864 | 22.31217 | 244° | 16km/h | 22211m | -49.9m/s | -53.6°C | 0.0% | 0hPa | 0V | 00:00:00 | 00:00:00 | 00:00:00 | |
| LZ4TU-5 | 2026-09-04 00:57:50 | 43.00870 | 22.31244 | 287° | 5km/h | 22514m | -50.2m/s | -54.5°C | 0.0% | 0hPa | 0V | 00:00:00 | 00:00:00 | 00:00:00 | |
| LZ4TU-5 | 2026-09-04 00:56:07 | 43.00845 | 22.31425 | 277° | 9km/h | 29480m | -87.7m/s | -39.7°C | 0.0% | 0hPa | 0V | 00:00:00 | 00:00:00 | 00:00:00 | |
| LZ4TU-5 | 2026-09-04 00:56:02 | 43.00845 | 22.31441 | 283° | 7km/h | 29926m | -89.8m/s | -39.3°C | 0.0% | 0hPa | 0V | 00:00:00 | 00:00:00 | 00:00:00 | |
| LZ4TU-5 | 2026-09-04 00:53:15 | 43.00766 | 22.31775 | 360° | 24km/h | 32194m | 6.8m/s | -42.2°C | 0.0% | 0hPa | 0V | 00:00:00 | 00:00:00 | 00:00:00 | |
| LZ4TU-5 | 2026-09-04 00:53:08 | 43.00771 | 22.31823 | 218° | 24km/h | 32165m | 4.4m/s | -42.2°C | 0.0% | 0hPa | 0V | 00:00:00 | 00:00:00 | 00:00:00 | |
| LZ4TU-5 | 2026-09-04 00:49:12 | 43.00554 | 22.32746 | 171° | 16km/h | 30677m | 6.1m/s | -43.5°C | 0.0% | 0hPa | 0V | 00:00:00 | 00:00:00 | 00:00:00 | |
| LZ4TU-5 | 2026-09-04 00:49:07 | 43.00542 | 22.32749 | 302° | 27km/h | 30644m | 6.5m/s | -43.4°C | 0.0% | 0hPa | 0V | 00:00:00 | 00:00:00 | 00:00:00 | |
| LZ4TU-5 | 2026-09-04 00:42:29 | 43.00466 | 22.33191 | 177° | 22km/h | 28110m | 7.3m/s | -44.1°C | 0.0% | 0hPa | 0V | 00:00:00 | 00:00:00 | 00:00:00 | |
| LZ4TU-5 | 2026-09-04 00:42:24 | 43.00484 | 22.33197 | 38° | 2km/h | 28079m | 7.1m/s | -44.2°C | 0.0% | 0hPa | 0V | 00:00:00 | 00:00:00 | 00:00:00 | |
| LZ4TU-5 | 2026-09-04 00:40:25 | 43.00293 | 22.32906 | 331° | 18km/h | 27343m | 6.6m/s | -46.8°C | 0.0% | 0hPa | 0V | 00:00:00 | 00:00:00 | 00:00:00 | |
| LZ4TU-5 | 2026-09-04 00:40:21 | 43.00296 | 22.32899 | 105° | 26km/h | 27317m | 6.2m/s | -46.8°C | 0.0% | 0hPa | 0V | 00:00:00 | 00:00:00 | 00:00:00 | |
| LZ4TU-5 | 2026-09-04 00:38:33 | 42.99823 | 22.32714 | 339° | 44km/h | 26645m | 5.5m/s | -48.4°C | 0.0% | 0hPa | 0V | 00:00:00 | 00:00:00 | 00:00:00 | |
| LZ4TU-5 | 2026-09-04 00:36:44 | 42.99396 | 22.33203 | 279° | 24km/h | 25966m | 6.1m/s | -49.0°C | 0.0% | 0hPa | 0V | 00:00:00 | 00:00:00 | 00:00:00 | |
| LZ4TU-5 | 2026-09-04 00:36:40 | 42.99397 | 22.33241 | 272° | 24km/h | 25942m | 5.8m/s | -48.9°C | 0.0% | 0hPa | 0V | 00:00:00 | 00:00:00 | 00:00:00 | |
| LZ4TU-5 | 2026-09-04 00:34:52 | 42.99264 | 22.33727 | 252° | 27km/h | 25313m | 5.7m/s | -49.3°C | 0.0% | 0hPa | 0V | 00:00:00 | 00:00:00 | 00:00:00 | |
| LZ4TU-5 | 2026-09-04 00:34:47 | 42.99266 | 22.33762 | 272° | 16km/h | 25283m | 6.1m/s | -49.4°C | 0.0% | 0hPa | 0V | 00:00:00 | 00:00:00 | 00:00:00 | |
| LZ4TU-5 | 2026-09-04 00:33:05 | 42.99332 | 22.34094 | 7° | 11km/h | 24681m | 5.9m/s | -50.8°C | 0.0% | 0hPa | 0V | 00:00:00 | 00:00:00 | 00:00:00 | |
| LZ4TU-5 | 2026-09-04 00:33:00 | 42.99328 | 22.34103 | 264° | 24km/h | 24651m | 6.2m/s | -50.9°C | 0.0% | 0hPa | 0V | 00:00:00 | 00:00:00 | 00:00:00 | |
| LZ4TU-5 | 2026-09-04 00:31:17 | 42.99326 | 22.34306 | 267° | 15km/h | 24073m | 5.5m/s | -53.4°C | 0.0% | 0hPa | 0V | 00:00:00 | 00:00:00 | 00:00:00 | |
| LZ4TU-5 | 2026-09-04 00:31:12 | 42.99318 | 22.34326 | 304° | 9km/h | 24043m | 4.7m/s | -53.5°C | 0.0% | 0hPa | 0V | 00:00:00 | 00:00:00 | 00:00:00 | |
| LZ4TU-5 | 2026-09-04 00:29:30 | 42.99288 | 22.34637 | 283° | 20km/h | 23445m | 6.4m/s | -54.3°C | 0.0% | 0hPa | 0V | 00:00:00 | 00:00:00 | 00:00:00 | |
| LZ4TU-5 | 2026-09-04 00:29:25 | 42.99283 | 22.34675 | 275° | 29km/h | 23420m | 6.1m/s | -54.3°C | 0.0% | 0hPa | 0V | 00:00:00 | 00:00:00 | 00:00:00 | |
| LZ4TU-5 | 2026-09-04 00:29:20 | 42.99271 | 22.34715 | 311° | 29km/h | 23394m | 5.4m/s | -54.3°C | 0.0% | 0hPa | 0V | 00:00:00 | 00:00:00 | 00:00:00 | |
| LZ4TU-5 | 2026-09-04 00:27:34 | 42.99484 | 22.35103 | 323° | 7km/h | 22777m | 5.0m/s | -55.3°C | 0.0% | 0hPa | 0V | 00:00:00 | 00:00:00 | 00:00:00 | |
| LZ4TU-5 | 2026-09-04 00:27:29 | 42.99485 | 22.35116 | 156° | 11km/h | 22751m | 5.9m/s | -55.2°C | 0.0% | 0hPa | 0V | 00:00:00 | 00:00:00 | 00:00:00 | |
| LZ4TU-5 | 2026-09-04 00:25:46 | 42.99627 | 22.35442 | 196° | 20km/h | 22167m | 6.1m/s | -53.2°C | 0.0% | 0hPa | 0V | 00:00:00 | 00:00:00 | 00:00:00 | |
| LZ4TU-5 | 2026-09-04 00:25:41 | 42.99643 | 22.35448 | 192° | 22km/h | 22139m | 5.9m/s | -53.4°C | 0.0% | 0hPa | 0V | 00:00:00 | 00:00:00 | 00:00:00 | |
| LZ4TU-5 | 2026-09-04 00:23:58 | 43.00072 | 22.35431 | 197° | 15km/h | 21583m | 5.9m/s | -54.9°C | 0.0% | 0hPa | 0V | 00:00:00 | 00:00:00 | 00:00:00 | |
| LZ4TU-5 | 2026-09-04 00:23:53 | 43.00092 | 22.35432 | 182° | 22km/h | 21557m | 4.8m/s | -54.9°C | 0.0% | 0hPa | 0V | 00:00:00 | 00:00:00 | 00:00:00 | |
| LZ4TU-5 | 2026-09-04 00:22:06 | 43.00574 | 22.34870 | 79° | 13km/h | 21000m | 5.4m/s | -57.0°C | 0.0% | 0hPa | 0V | 00:00:00 | 00:00:00 | 00:00:00 | |
| LZ4TU-5 | 2026-09-04 00:22:01 | 43.00568 | 22.34830 | 98° | 27km/h | 20973m | 5.0m/s | -57.3°C | 0.0% | 0hPa | 0V | 00:00:00 | 00:00:00 | 00:00:00 | |
| LZ4TU-5 | 2026-09-04 00:20:17 | 43.00498 | 22.34096 | 43° | 16km/h | 20443m | 5.3m/s | -57.2°C | 0.0% | 0hPa | 0V | 00:00:00 | 00:00:00 | 00:00:00 | |
| LZ4TU-5 | 2026-09-04 00:20:12 | 43.00490 | 22.34060 | 80° | 26km/h | 20418m | 4.8m/s | -57.6°C | 0.0% | 0hPa | 0V | 00:00:00 | 00:00:00 | 00:00:00 | |
| LZ4TU-5 | 2026-09-04 00:20:07 | 43.00471 | 22.34016 | 38° | 27km/h | 20391m | 6.1m/s | -57.7°C | 0.0% | 0hPa | 0V | 00:00:00 | 00:00:00 | 00:00:00 | |
| LZ4TU-5 | 2026-09-04 00:18:23 | 42.99905 | 22.33747 | 356° | 35km/h | 19853m | 5.6m/s | -55.1°C | 0.0% | 0hPa | 0V | 00:00:00 | 00:00:00 | 00:00:00 | |
| LZ4TU-5 | 2026-09-04 00:18:18 | 42.99889 | 22.33750 | 254° | 15km/h | 19825m | 5.0m/s | -55.0°C | 0.0% | 0hPa | 0V | 00:00:00 | 00:00:00 | 00:00:00 | |
| LZ4TU-5 | 2026-09-04 00:16:34 | 43.00027 | 22.33383 | 127° | 33km/h | 19261m | 5.5m/s | -57.4°C | 0.0% | 0hPa | 0V | 00:00:00 | 00:00:00 | 00:00:00 | |
| LZ4TU-5 | 2026-09-04 00:16:29 | 43.00047 | 22.33319 | 103° | 38km/h | 19234m | 5.0m/s | -57.5°C | 0.0% | 0hPa | 0V | 00:00:00 | 00:00:00 | 00:00:00 | |
| LZ4TU-5 | 2026-09-04 00:14:44 | 43.00101 | 22.32490 | 134° | 51km/h | 18668m | 5.0m/s | -57.4°C | 0.0% | 0hPa | 0V | 00:00:00 | 00:00:00 | 00:00:00 | |
| LZ4TU-5 | 2026-09-04 00:14:39 | 43.00128 | 22.32431 | 124° | 29km/h | 18643m | 4.7m/s | -57.6°C | 0.0% | 0hPa | 0V | 00:00:00 | 00:00:00 | 00:00:00 | |
| LZ4TU-5 | 2026-09-04 00:12:55 | 43.00577 | 22.30967 | 100° | 35km/h | 18110m | 6.2m/s | -57.3°C | 0.0% | 0hPa | 0V | 00:00:00 | 00:00:00 | 00:00:00 | |
| LZ4TU-5 | 2026-09-04 00:12:50 | 43.00587 | 22.30919 | 107° | 26km/h | 18081m | 6.6m/s | -57.3°C | 0.0% | 0hPa | 0V | 00:00:00 | 00:00:00 | 00:00:00 | |
| LZ4TU-5 | 2026-09-04 00:11:01 | 43.00439 | 22.30180 | 99° | 35km/h | 17524m | 5.1m/s | -56.0°C | 0.0% | 0hPa | 0V | 00:00:00 | 00:00:00 | 00:00:00 | |
| LZ4TU-5 | 2026-09-04 00:10:57 | 43.00448 | 22.30127 | 108° | 38km/h | 17506m | 3.7m/s | -56.1°C | 0.0% | 0hPa | 0V | 00:00:00 | 00:00:00 | 00:00:00 | |
| LZ4TU-5 | 2026-09-04 00:09:03 | 43.00471 | 22.29114 | 119° | 15km/h | 16931m | 4.7m/s | -55.7°C | 0.1% | 0hPa | 0V | 00:00:00 | 00:00:00 | 00:00:00 | |
| LZ4TU-5 | 2026-09-04 00:07:13 | 43.00861 | 22.28445 | 127° | 33km/h | 16376m | 4.7m/s | -54.6°C | 0.9% | 0hPa | 0V | 00:00:00 | 00:00:00 | 00:00:00 | |
| LZ4TU-5 | 2026-09-04 00:07:09 | 43.00884 | 22.28398 | 123° | 35km/h | 16352m | 5.1m/s | -54.4°C | 0.9% | 0hPa | 0V | 00:00:00 | 00:00:00 | 00:00:00 | |
| LZ4TU-5 | 2026-09-04 00:05:21 | 43.01290 | 22.26986 | 95° | 35km/h | 15841m | 5.4m/s | -54.7°C | 1.8% | 0hPa | 0V | 00:00:00 | 00:00:00 | 00:00:00 | |
| LZ4TU-5 | 2026-09-04 00:05:16 | 43.01290 | 22.26926 | 98° | 37km/h | 15817m | 5.3m/s | -54.5°C | 1.9% | 0hPa | 0V | 00:00:00 | 00:00:00 | 00:00:00 | |
| LZ4TU-5 | 2026-09-04 00:03:33 | 43.01844 | 22.25210 | 116° | 69km/h | 15367m | 5.1m/s | -57.0°C | 2.5% | 0hPa | 0V | 00:00:00 | 00:00:00 | 00:00:00 | |
| LZ4TU-5 | 2026-09-04 00:03:26 | 43.01885 | 22.25111 | 125° | 64km/h | 15348m | 4.0m/s | -57.0°C | 2.5% | 0hPa | 0V | 00:00:00 | 00:00:00 | 00:00:00 | |
| LZ4TU-5 | 2026-09-04 00:01:58 | 43.02567 | 22.23018 | 96° | 64km/h | 14858m | 5.4m/s | -56.8°C | 2.6% | 0hPa | 0V | 00:00:00 | 00:00:00 | 00:00:00 | |
| LZ4TU-5 | 2026-09-04 00:01:53 | 43.02574 | 22.22911 | 98° | 60km/h | 14832m | 5.0m/s | -56.7°C | 2.6% | 0hPa | 0V | 00:00:00 | 00:00:00 | 00:00:00 | |
| LZ4TU-5 | 2026-09-03 23:59:57 | 43.02894 | 22.21114 | 107° | 53km/h | 14302m | 5.0m/s | -53.3°C | 2.8% | 0hPa | 0V | 00:00:00 | 00:00:00 | 00:00:00 | |
| LZ4TU-5 | 2026-09-03 23:59:52 | 43.02922 | 22.21019 | 114° | 57km/h | 14277m | 5.3m/s | -53.2°C | 2.8% | 0hPa | 0V | 00:00:00 | 00:00:00 | 00:00:00 | |
| LZ4TU-5 | 2026-09-03 23:58:19 | 43.03365 | 22.19183 | 104° | 66km/h | 13841m | 4.3m/s | -52.9°C | 3.1% | 0hPa | 0V | 00:00:00 | 00:00:00 | 00:00:00 | |
| LZ4TU-5 | 2026-09-03 23:58:14 | 43.03390 | 22.19081 | 110° | 60km/h | 13818m | 4.1m/s | -52.8°C | 3.2% | 0hPa | 0V | 00:00:00 | 00:00:00 | 00:00:00 | |
| LZ4TU-5 | 2026-09-03 23:56:31 | 43.03887 | 22.17199 | 127° | 47km/h | 13347m | 4.2m/s | -51.2°C | 3.4% | 0hPa | 0V | 00:00:00 | 00:00:00 | 00:00:00 | |
| LZ4TU-5 | 2026-09-03 23:56:27 | 43.03913 | 22.17127 | 111° | 75km/h | 13330m | 5.0m/s | -51.3°C | 0% | 0hPa | 0V | 00:00:00 | 00:00:00 | 00:00:00 | |
| LZ4TU-5 | 2026-09-03 23:54:39 | 43.04781 | 22.15066 | 147° | 60km/h | 12696m | 5.8m/s | -51.4°C | 6.1% | 0hPa | 0V | 00:00:00 | 00:00:00 | 00:00:00 | |
| LZ4TU-5 | 2026-09-03 23:54:35 | 43.04815 | 22.15007 | 121° | 69km/h | 12671m | 5.8m/s | -51.3°C | 6.3% | 0hPa | 0V | 00:00:00 | 00:00:00 | 00:00:00 | |
| LZ4TU-5 | 2026-09-03 23:52:51 | 43.06489 | 22.13235 | 143° | 82km/h | 12132m | 4.0m/s | -50.8°C | 13.7% | 0hPa | 0V | 00:00:00 | 00:00:00 | 00:00:00 | |
| LZ4TU-5 | 2026-09-03 23:52:46 | 43.06565 | 22.13141 | 139° | 80km/h | 12113m | 3.1m/s | -51.2°C | 14.3% | 0hPa | 0V | 00:00:00 | 00:00:00 | 00:00:00 | |
| LZ4TU-5 | 2026-09-03 23:50:59 | 43.08570 | 22.10773 | 138° | 115km/h | 11667m | 4.1m/s | -53.4°C | 26.6% | 0hPa | 0V | 00:00:00 | 00:00:00 | 00:00:00 | |
| LZ4TU-5 | 2026-09-03 23:50:54 | 43.08677 | 22.10658 | 144° | 104km/h | 11644m | 5.0m/s | -53.3°C | 26.9% | 0hPa | 0V | 00:00:00 | 00:00:00 | 00:00:00 | |
| LZ4TU-5 | 2026-09-03 23:49:06 | 43.10926 | 22.08435 | 153° | 93km/h | 11089m | 4.8m/s | -52.1°C | 35.1% | 0hPa | 0V | 00:00:00 | 00:00:00 | 00:00:00 | |
| LZ4TU-5 | 2026-09-03 23:49:01 | 43.11034 | 22.08356 | 153° | 108km/h | 11065m | 5.2m/s | -52.0°C | 35.5% | 0hPa | 0V | 00:00:00 | 00:00:00 | 00:00:00 | |
| LZ4TU-5 | 2026-09-03 23:47:19 | 43.13478 | 22.06907 | 161° | 117km/h | 10597m | 4.2m/s | -50.2°C | 52.3% | 0hPa | 0V | 00:00:00 | 00:00:00 | 00:00:00 | |
| LZ4TU-5 | 2026-09-03 23:47:15 | 43.13573 | 22.06835 | 147° | 88km/h | 10580m | 3.9m/s | -50.3°C | 54.0% | 0hPa | 0V | 00:00:00 | 00:00:00 | 00:00:00 | |
| LZ4TU-5 | 2026-09-03 23:45:34 | 43.15372 | 22.05136 | 134° | 64km/h | 10063m | 2.4m/s | -47.1°C | 64.9% | 0hPa | 0V | 00:00:00 | 00:00:00 | 00:00:00 | |
| LZ4TU-5 | 2026-09-03 23:45:29 | 43.15471 | 22.05050 | 156° | 97km/h | 10036m | 3.8m/s | -46.8°C | 65.1% | 0hPa | 0V | 00:00:00 | 00:00:00 | 00:00:00 | |
| LZ4TU-5 | 2026-09-03 23:43:42 | 43.17114 | 22.03042 | 155° | 82km/h | 9416m | 8.1m/s | -41.3°C | 0% | 0hPa | 0V | 00:00:00 | 00:00:00 | 00:00:00 | |
| LZ4TU-5 | 2026-09-03 23:43:38 | 43.17182 | 22.03018 | 165° | 73km/h | 9392m | 7.0m/s | -41.0°C | 59.3% | 0hPa | 0V | 00:00:00 | 00:00:00 | 00:00:00 | |
| LZ4TU-5 | 2026-09-03 23:42:02 | 43.18488 | 22.01672 | 150° | 75km/h | 8773m | 6.4m/s | -35.5°C | 55.8% | 0hPa | 0V | 00:00:00 | 00:00:00 | 00:00:00 | |
| LZ4TU-5 | 2026-09-03 23:41:58 | 43.18541 | 22.01608 | 129° | 77km/h | 8746m | 5.4m/s | -35.3°C | 55.9% | 0hPa | 0V | 00:00:00 | 00:00:00 | 00:00:00 | |
| LZ4TU-5 | 2026-09-03 23:40:33 | 43.19702 | 22.00181 | 121° | 82km/h | 8210m | 4.0m/s | -30.3°C | 60.4% | 0hPa | 0V | 00:00:00 | 00:00:00 | 00:00:00 | |
| LZ4TU-5 | 2026-09-03 23:40:28 | 43.19759 | 22.00110 | 148° | 62km/h | 8181m | 3.3m/s | -30.3°C | 62.7% | 0hPa | 0V | 00:00:00 | 00:00:00 | 00:00:00 | |
| LZ4TU-5 | 2026-09-03 23:39:00 | 43.20738 | 21.98834 | 145° | 58km/h | 7673m | 3.9m/s | -26.4°C | 56.7% | 0hPa | 0V | 00:00:00 | 00:00:00 | 00:00:00 | |
| LZ4TU-5 | 2026-09-03 23:38:56 | 43.20774 | 21.98810 | 165° | 35km/h | 7654m | 3.2m/s | -26.3°C | 55.3% | 0hPa | 0V | 00:00:00 | 00:00:00 | 00:00:00 | |
| LZ4TU-5 | 2026-09-03 23:37:30 | 43.21777 | 21.97862 | 152° | 58km/h | 7174m | 5.1m/s | -21.9°C | 45.4% | 0hPa | 0V | 00:00:00 | 00:00:00 | 00:00:00 | |
| LZ4TU-5 | 2026-09-03 23:37:25 | 43.21849 | 21.97825 | 149° | 46km/h | 7151m | 5.4m/s | -21.7°C | 0% | 0hPa | 0V | 00:00:00 | 00:00:00 | 00:00:00 | |
| LZ4TU-5 | 2026-09-03 23:36:03 | 43.22778 | 21.96847 | 171° | 51km/h | 6737m | 3.3m/s | -18.6°C | 40.2% | 0hPa | 0V | 00:00:00 | 00:00:00 | 00:00:00 | |
| LZ4TU-5 | 2026-09-03 23:35:59 | 43.22821 | 21.96813 | 133° | 55km/h | 6714m | 6.1m/s | -18.5°C | 39.5% | 0hPa | 0V | 00:00:00 | 00:00:00 | 00:00:00 | |
| LZ4TU-5 | 2026-09-03 23:34:45 | 43.23733 | 21.95989 | 158° | 69km/h | 6347m | 2.8m/s | -16.1°C | 66.6% | 0hPa | 0V | 00:00:00 | 00:00:00 | 00:00:00 | |
| LZ4TU-5 | 2026-09-03 23:34:40 | 43.23810 | 21.95954 | 146° | 58km/h | 6327m | 5.8m/s | -16.0°C | 67.4% | 0hPa | 0V | 00:00:00 | 00:00:00 | 00:00:00 | |
| LZ4TU-5 | 2026-09-03 23:33:24 | 43.24792 | 21.94753 | 140° | 71km/h | 5932m | 5.5m/s | -12.8°C | 10.1% | 0hPa | 0V | 00:00:00 | 00:00:00 | 00:00:00 | |
| LZ4TU-5 | 2026-09-03 23:33:19 | 43.24861 | 21.94702 | 161° | 60km/h | 5909m | 4.5m/s | -12.7°C | 0% | 0hPa | 0V | 00:00:00 | 00:00:00 | 00:00:00 | |
| LZ4TU-5 | 2026-09-03 23:31:58 | 43.25819 | 21.93510 | 139° | 73km/h | 5452m | 4.1m/s | -10.6°C | 11.1% | 0hPa | 0V | 00:00:00 | 00:00:00 | 00:00:00 | |
| LZ4TU-5 | 2026-09-03 23:31:54 | 43.25877 | 21.93440 | 152° | 73km/h | 5431m | 6.3m/s | -10.6°C | 13.1% | 0hPa | 0V | 00:00:00 | 00:00:00 | 00:00:00 | |
| LZ4TU-5 | 2026-09-03 23:30:39 | 43.26761 | 21.92634 | 122° | 60km/h | 5052m | 6.0m/s | -9.6°C | 54.7% | 0hPa | 0V | 00:00:00 | 00:00:00 | 00:00:00 | |
| LZ4TU-5 | 2026-09-03 23:30:35 | 43.26818 | 21.92565 | 155° | 64km/h | 5026m | 5.2m/s | -9.6°C | 59.0% | 0hPa | 0V | 00:00:00 | 00:00:00 | 00:00:00 | |
| LZ4TU-5 | 2026-09-03 23:29:16 | 43.27496 | 21.91814 | 167° | 51km/h | 4626m | 3.2m/s | -8.0°C | 86.0% | 0hPa | 0V | 00:00:00 | 00:00:00 | 00:00:00 | |
| LZ4TU-5 | 2026-09-03 23:29:12 | 43.27544 | 21.91778 | 131° | 55km/h | 4610m | 6.1m/s | -8.0°C | 87.5% | 0hPa | 0V | 00:00:00 | 00:00:00 | 00:00:00 | |
| LZ4TU-5 | 2026-09-03 23:28:00 | 43.27818 | 21.91069 | 101° | 38km/h | 4251m | 5.8m/s | -5.1°C | 70.5% | 0hPa | 0V | 00:00:00 | 00:00:00 | 00:00:00 | |
| LZ4TU-5 | 2026-09-03 23:27:54 | 43.27851 | 21.91019 | 134° | 29km/h | 4222m | 6.4m/s | -4.9°C | 69.8% | 0hPa | 0V | 00:00:00 | 00:00:00 | 00:00:00 | |
| LZ4TU-5 | 2026-09-03 23:26:46 | 43.28227 | 21.90463 | 132° | 33km/h | 3867m | 5.2m/s | -2.9°C | 82.7% | 0hPa | 0V | 00:00:00 | 00:00:00 | 00:00:00 | |
| LZ4TU-5 | 2026-09-03 23:26:41 | 43.28275 | 21.90413 | 162° | 38km/h | 3840m | 5.6m/s | -2.7°C | 83.2% | 0hPa | 0V | 00:00:00 | 00:00:00 | 00:00:00 | |
| LZ4TU-5 | 2026-09-03 23:25:32 | 43.28721 | 21.90226 | 197° | 33km/h | 3472m | 4.0m/s | -0.3°C | 77.8% | 0hPa | 0V | 00:00:00 | 00:00:00 | 00:00:00 |